Time;durP1;ratioP1;P1;durP2;ratioP2;P2;SDS_P1;SDS_P2;PMS_P1;PMS_P2;Temp;Humidity;BMP_temperature;BMP_pressure;BME280_temperature;BME280_humidity;BME280_pressure;Samples;Min_cycle;Max_cycle;Signal;HPM_P1;HPM_P2
2021/12/08 00:02:11;;;;;;;11.38;3.72;;;2.50;99.90;;;;;;4994413;28;20042;-89
2021/12/08 00:04:38;;;;;;;16.83;4.00;;;2.80;99.90;;;;;;4976744;28;20556;-89
2021/12/08 00:07:05;;;;;;;12.50;4.18;;;2.40;99.90;;;;;;4976696;28;20038;-88
2021/12/08 00:14:54;;;;;;;17.58;4.63;;;2.20;99.90;;;;;;4993371;28;20112;-88
2021/12/08 00:17:20;;;;;;;14.85;4.50;;;2.20;99.90;;;;;;4992990;28;20073;-88
2021/12/08 00:19:46;;;;;;;17.35;4.95;;;2.10;99.90;;;;;;4975427;28;20088;-88
2021/12/08 00:22:11;;;;;;;17.02;4.93;;;2.10;99.90;;;;;;4977094;28;20054;-89
2021/12/08 00:24:37;;;;;;;10.98;5.13;;;2.20;99.90;;;;;;4992847;28;20049;-88
2021/12/08 00:27:03;;;;;;;15.95;5.05;;;2.10;99.90;;;;;;4976942;28;20421;-89
2021/12/08 00:29:29;;;;;;;13.63;5.53;;;2.10;99.90;;;;;;4974856;28;20512;-89
2021/12/08 00:31:56;;;;;;;17.25;6.13;;;2.20;99.90;;;;;;4977262;28;20046;-89
2021/12/08 00:34:22;;;;;;;11.85;5.50;;;2.10;99.90;;;;;;4975819;28;20053;-89
2021/12/08 00:36:51;;;;;;;13.32;5.70;;;2.10;99.90;;;;;;4977006;28;20350;-89
2021/12/08 00:39:17;;;;;;;16.95;5.63;;;2.10;99.90;;;;;;4976845;28;20524;-89
2021/12/08 00:41:43;;;;;;;17.77;5.85;;;2.20;99.90;;;;;;4991993;28;20046;-88
2021/12/08 00:44:08;;;;;;;17.73;5.13;;;2.20;99.90;;;;;;4976619;28;20096;-89
2021/12/08 00:46:36;;;;;;;16.17;5.20;;;2.20;99.90;;;;;;4976040;28;20073;-88
2021/12/08 00:49:04;;;;;;;15.32;5.25;;;2.10;99.90;;;;;;4975386;28;20215;-89
2021/12/08 00:51:30;;;;;;;20.60;5.85;;;2.20;99.90;;;;;;4976091;28;20050;-90
2021/12/08 00:53:56;;;;;;;17.65;5.57;;;2.90;99.90;;;;;;4977376;28;20508;-91
2021/12/08 00:56:22;;;;;;;13.32;5.93;;;2.70;99.90;;;;;;4992485;28;20046;-89
2021/12/08 00:58:48;;;;;;;11.02;5.22;;;2.70;99.90;;;;;;4976285;28;20050;-89
2021/12/08 01:01:15;;;;;;;17.75;5.35;;;2.20;99.90;;;;;;4976447;28;20033;-89
2021/12/08 01:03:41;;;;;;;16.65;4.75;;;2.30;99.90;;;;;;4975901;28;20041;-90
2021/12/08 01:06:07;;;;;;;14.15;5.47;;;3.50;99.90;;;;;;4976555;28;20046;-90
2021/12/08 01:08:34;;;;;;;17.85;4.97;;;2.30;99.90;;;;;;4975624;28;20050;-90
2021/12/08 01:11:05;;;;;;;16.48;5.25;;;2.30;99.90;;;;;;4976879;28;20153;-89
2021/12/08 01:13:30;;;;;;;14.43;5.95;;;2.40;99.90;;;;;;4976748;28;20050;-90
2021/12/08 01:15:58;;;;;;;13.02;5.55;;;2.30;99.90;;;;;;4976086;28;20581;-90
2021/12/08 01:18:25;;;;;;;12.57;4.90;;;2.40;99.90;;;;;;4976371;28;20813;-89
2021/12/08 01:20:52;;;;;;;14.07;5.20;;;2.40;99.90;;;;;;4976133;28;20104;-89
2021/12/08 01:23:19;;;;;;;11.68;4.50;;;2.40;99.90;;;;;;4975353;28;20042;-90
2021/12/08 01:25:45;;;;;;;14.55;4.95;;;3.20;99.90;;;;;;4992406;28;20056;-89
2021/12/08 01:28:11;;;;;;;13.77;5.22;;;2.50;99.90;;;;;;4976341;28;20042;-89
2021/12/08 01:30:37;;;;;;;12.80;4.82;;;2.50;99.90;;;;;;4991970;28;20050;-90
2021/12/08 01:33:03;;;;;;;16.58;4.25;;;2.60;99.90;;;;;;4992008;28;20042;-90
2021/12/08 01:35:29;;;;;;;13.15;4.75;;;2.60;99.90;;;;;;4976019;28;20053;-89
2021/12/08 01:37:55;;;;;;;15.50;4.20;;;2.60;99.90;;;;;;4975211;28;20277;-88
2021/12/08 01:40:21;;;;;;;14.10;4.88;;;2.70;99.90;;;;;;4975864;28;20144;-89
2021/12/08 01:42:51;;;;;;;12.75;4.40;;;2.70;99.90;;;;;;4976323;28;20157;-90
2021/12/08 01:46:02;;;;;;;14.82;4.75;;;2.70;99.90;;;;;;4991357;28;20127;-90
2021/12/08 01:48:20;;;;;;;14.23;5.03;;;2.80;99.90;;;;;;4991309;28;20453;-90
2021/12/08 01:50:50;;;;;;;13.15;4.38;;;2.80;99.90;;;;;;4991858;28;20052;-90
2021/12/08 01:53:16;;;;;;;10.55;4.15;;;2.80;99.90;;;;;;4992060;28;20042;-90
2021/12/08 01:55:42;;;;;;;14.18;4.57;;;2.80;99.90;;;;;;4992255;28;20100;-89
2021/12/08 01:58:09;;;;;;;12.38;4.13;;;2.80;99.90;;;;;;4975377;28;20041;-90
2021/12/08 02:00:40;;;;;;;9.18;4.07;;;3.60;99.90;;;;;;4975551;28;20058;-90
2021/12/08 02:03:06;;;;;;;13.75;4.47;;;2.90;99.90;;;;;;4975403;28;20042;-90
2021/12/08 02:05:33;;;;;;;17.40;4.68;;;4.10;99.90;;;;;;4991578;28;20119;-90
2021/12/08 02:07:59;;;;;;;12.23;3.90;;;3.30;99.90;;;;;;4992418;28;20053;-89
2021/12/08 02:10:25;;;;;;;11.57;4.10;;;2.90;99.90;;;;;;4974438;28;20046;-90
2021/12/08 02:12:51;;;;;;;13.18;4.68;;;3.00;99.90;;;;;;4975496;28;20053;-90
2021/12/08 02:15:20;;;;;;;14.23;4.57;;;3.60;99.90;;;;;;4991606;28;20120;-90
2021/12/08 02:17:49;;;;;;;18.45;4.43;;;3.60;99.90;;;;;;4993260;28;20104;-90
2021/12/08 02:20:16;;;;;;;10.80;4.60;;;3.00;99.90;;;;;;4994673;28;20104;-90
2021/12/08 02:22:42;;;;;;;15.27;4.30;;;3.00;99.90;;;;;;4980035;28;20114;-90
2021/12/08 02:25:16;;;;;;;12.32;4.28;;;3.00;99.90;;;;;;4979612;28;20038;-90
2021/12/08 02:27:42;;;;;;;14.30;4.75;;;3.70;99.90;;;;;;4994973;28;20056;-89
2021/12/08 02:30:25;;;;;;;11.93;4.28;;;3.00;99.90;;;;;;4995498;28;20046;-89
2021/12/08 02:46:52;;;;;;;14.57;4.88;;;3.00;99.90;;;;;;4995159;28;20053;-90
2021/12/08 02:49:20;;;;;;;10.00;4.70;;;3.80;99.90;;;;;;4994965;28;20125;-89
2021/12/08 02:51:46;;;;;;;16.35;4.43;;;3.70;99.90;;;;;;4978859;28;20042;-89
2021/12/08 02:54:12;;;;;;;13.95;5.35;;;4.20;99.90;;;;;;4994678;28;20116;-89
2021/12/08 02:56:38;;;;;;;8.02;4.50;;;3.00;99.90;;;;;;4979127;28;20449;-90
2021/12/08 02:59:04;;;;;;;15.40;4.72;;;3.00;99.90;;;;;;4994650;28;20049;-89
2021/12/08 03:01:30;;;;;;;10.75;4.38;;;3.00;99.90;;;;;;4978049;28;20057;-89
2021/12/08 03:03:56;;;;;;;18.17;4.57;;;3.00;99.90;;;;;;4978041;28;20045;-88
2021/12/08 03:06:22;;;;;;;12.52;4.45;;;4.00;99.90;;;;;;4978627;28;20042;-88
2021/12/08 03:08:48;;;;;;;12.23;4.45;;;3.00;99.90;;;;;;4977501;28;20052;-88
2021/12/08 03:11:14;;;;;;;8.90;4.30;;;3.00;99.90;;;;;;4978291;28;20124;-89
2021/12/08 03:13:43;;;;;;;13.32;4.75;;;3.00;99.90;;;;;;4994489;28;20184;-89
2021/12/08 03:16:11;;;;;;;9.35;4.63;;;3.00;99.90;;;;;;4977914;28;20056;-89
2021/12/08 03:19:18;;;;;;;11.23;4.78;;;3.00;99.90;;;;;;4994200;28;20053;-89
2021/12/08 03:21:44;;;;;;;10.15;5.00;;;3.00;99.90;;;;;;4994599;28;20364;-89
2021/12/08 03:26:49;;;;;;;10.90;5.03;;;4.10;99.90;;;;;;4994637;28;20060;-89
2021/12/08 03:29:23;;;;;;;12.63;5.40;;;3.10;99.90;;;;;;4977411;28;20141;-89
2021/12/08 03:31:51;;;;;;;10.43;5.68;;;3.10;99.90;;;;;;4978314;28;20112;-89
2021/12/08 03:34:20;;;;;;;12.05;6.18;;;3.20;99.90;;;;;;4977451;28;20486;-89
2021/12/08 03:36:47;;;;;;;18.92;6.50;;;3.20;99.90;;;;;;4977325;28;20046;-89
2021/12/08 03:39:13;;;;;;;13.73;6.88;;;4.10;99.90;;;;;;4994486;28;20065;-89
2021/12/08 03:41:38;;;;;;;10.63;6.70;;;3.90;99.90;;;;;;4977883;28;20104;-89
2021/12/08 03:44:05;;;;;;;16.83;6.53;;;3.30;99.90;;;;;;4977165;28;20382;-89
2021/12/08 03:46:35;;;;;;;15.00;7.40;;;3.30;99.90;;;;;;4993932;28;20499;-90
2021/12/08 03:49:05;;;;;;;14.50;7.82;;;3.30;99.90;;;;;;4976466;28;20038;-90
2021/12/08 03:51:31;;;;;;;13.18;7.28;;;3.70;99.90;;;;;;4993872;28;20053;-90
2021/12/08 03:53:56;;;;;;;14.25;7.03;;;3.30;99.90;;;;;;4993988;28;20042;-89
2021/12/08 03:56:22;;;;;;;13.95;8.02;;;3.40;99.90;;;;;;4978116;28;20135;-90
2021/12/08 03:58:48;;;;;;;13.50;7.53;;;3.40;99.90;;;;;;4976998;28;20046;-89
2021/12/08 04:01:14;;;;;;;14.18;7.97;;;3.50;99.90;;;;;;4994118;28;20046;-90
2021/12/08 04:03:48;;;;;;;14.32;7.95;;;3.40;99.90;;;;;;4977321;28;20046;-89
2021/12/08 04:06:26;;;;;;;14.57;7.55;;;3.40;99.90;;;;;;4977426;28;20049;-89
2021/12/08 04:08:56;;;;;;;12.85;7.65;;;4.40;99.90;;;;;;4993242;28;20042;-90
2021/12/08 04:11:22;;;;;;;14.60;7.85;;;3.50;99.90;;;;;;4977209;28;20088;-89
2021/12/08 04:13:53;;;;;;;16.98;8.75;;;3.50;99.90;;;;;;4977473;28;20061;-89
2021/12/08 04:16:24;;;;;;;17.73;8.20;;;4.30;99.90;;;;;;4993741;28;20038;-90
2021/12/08 04:18:50;;;;;;;14.43;7.63;;;3.50;99.90;;;;;;4992822;28;20076;-89
2021/12/08 04:21:16;;;;;;;13.18;7.75;;;4.70;99.90;;;;;;4978069;28;20493;-90
2021/12/08 04:23:43;;;;;;;14.23;8.68;;;4.50;99.90;;;;;;4976951;28;20038;-89
2021/12/08 04:26:26;;;;;;;15.75;8.52;;;3.80;99.90;;;;;;4976805;28;20081;-89
2021/12/08 04:28:53;;;;;;;16.87;8.27;;;3.60;99.90;;;;;;4977603;28;20145;-90
2021/12/08 04:31:23;;;;;;;19.45;8.50;;;3.60;99.90;;;;;;4977142;28;20067;-90
2021/12/08 04:33:53;;;;;;;19.92;9.93;;;3.60;99.90;;;;;;4976585;28;20049;-89
2021/12/08 04:36:21;;;;;;;16.50;9.80;;;4.60;99.90;;;;;;4977280;28;20042;-90
2021/12/08 04:38:51;;;;;;;15.68;9.50;;;4.00;99.90;;;;;;4976007;28;20112;-89
2021/12/08 04:41:27;;;;;;;18.27;9.82;;;3.70;99.90;;;;;;4975464;28;20038;-89
2021/12/08 04:44:04;;;;;;;16.58;9.55;;;4.50;99.90;;;;;;4976685;28;20060;-89
2021/12/08 04:49:29;;;;;;;16.30;10.00;;;4.60;99.90;;;;;;4992829;28;20050;-89
2021/12/08 04:52:06;;;;;;;16.70;9.77;;;4.50;99.90;;;;;;4976884;28;20520;-89
2021/12/08 05:06:02;;;;;;;19.77;10.75;;;5.00;99.90;;;;;;4992613;28;20501;-90
2021/12/08 05:08:34;;;;;;;22.90;11.27;;;3.90;99.90;;;;;;4992052;28;20121;-89
2021/12/08 05:11:02;;;;;;;15.07;10.98;;;3.90;99.90;;;;;;4976464;28;20050;-89
2021/12/08 05:13:28;;;;;;;18.05;12.20;;;4.70;99.90;;;;;;4976168;28;20049;-90
2021/12/08 05:15:55;;;;;;;19.75;11.60;;;4.90;99.90;;;;;;4975833;28;20106;-90
2021/12/08 05:18:26;;;;;;;22.77;11.57;;;4.50;99.90;;;;;;4976401;28;20164;-89
2021/12/08 05:21:02;;;;;;;17.58;10.73;;;4.00;99.90;;;;;;4975731;28;20042;-90
2021/12/08 05:23:34;;;;;;;16.52;11.68;;;4.00;99.90;;;;;;4975094;28;20042;-89
2021/12/08 05:26:04;;;;;;;22.15;12.10;;;4.00;99.90;;;;;;4976434;28;20084;-89
2021/12/08 05:28:30;;;;;;;16.95;11.45;;;4.00;99.90;;;;;;4974621;28;20042;-89
2021/12/08 05:31:09;;;;;;;17.15;10.98;;;4.00;99.90;;;;;;4975821;28;20049;-90
2021/12/08 05:33:36;;;;;;;21.48;11.98;;;5.10;99.90;;;;;;4975378;28;20050;-89
2021/12/08 05:36:03;;;;;;;19.77;11.15;;;4.90;99.90;;;;;;4977141;28;20052;-90
2021/12/08 05:38:30;;;;;;;21.45;12.02;;;4.10;99.90;;;;;;5008508;28;20042;-90
2021/12/08 05:41:00;;;;;;;17.60;12.13;;;4.10;99.90;;;;;;4995790;28;20061;-90
2021/12/08 05:43:26;;;;;;;17.88;12.32;;;4.20;99.90;;;;;;4994978;28;20049;-90
2021/12/08 05:45:54;;;;;;;17.77;11.82;;;4.70;99.90;;;;;;4980933;28;20061;-90
2021/12/08 05:48:20;;;;;;;19.60;11.32;;;5.10;99.90;;;;;;4991607;28;20455;-91
2021/12/08 05:50:53;;;;;;;19.63;11.18;;;4.30;99.90;;;;;;4992314;28;20164;-90
2021/12/08 05:53:21;;;;;;;21.40;11.20;;;4.40;99.90;;;;;;4976219;28;20112;-91
2021/12/08 05:55:47;;;;;;;17.17;10.48;;;4.80;99.90;;;;;;4986193;28;20049;-90
2021/12/08 05:58:15;;;;;;;17.77;11.05;;;4.80;99.90;;;;;;5011678;28;20132;-90
2021/12/08 06:00:51;;;;;;;17.10;10.43;;;4.40;99.90;;;;;;5012095;28;20413;-90
2021/12/08 06:03:18;;;;;;;15.23;10.90;;;4.40;99.90;;;;;;4995180;28;20046;-91
2021/12/08 06:05:46;;;;;;;15.32;10.18;;;4.50;99.90;;;;;;5011776;28;20049;-90
2021/12/08 06:08:13;;;;;;;16.15;9.05;;;4.50;99.90;;;;;;4995271;28;20049;-90
2021/12/08 06:10:40;;;;;;;19.35;10.38;;;5.60;99.90;;;;;;4995287;28;20048;-90
2021/12/08 06:13:08;;;;;;;19.05;9.77;;;5.30;99.90;;;;;;4995451;28;20075;-90
2021/12/08 06:15:35;;;;;;;17.90;9.27;;;4.80;99.90;;;;;;4995686;28;20241;-91
2021/12/08 06:18:01;;;;;;;16.65;9.02;;;4.60;99.90;;;;;;4994431;28;20514;-90
2021/12/08 06:20:26;;;;;;;12.02;8.32;;;4.60;99.90;;;;;;5010731;28;20034;-90
2021/12/08 06:22:54;;;;;;;23.10;9.65;;;4.60;99.90;;;;;;4995581;28;20075;-91
2021/12/08 06:25:21;;;;;;;14.60;8.63;;;5.50;99.90;;;;;;5011679;28;20134;-90
2021/12/08 06:27:47;;;;;;;14.05;9.38;;;5.00;99.90;;;;;;4995610;28;20041;-91
2021/12/08 06:30:19;;;;;;;13.43;8.30;;;4.80;99.90;;;;;;4994877;28;20038;-90
2021/12/08 06:32:45;;;;;;;14.27;7.75;;;5.70;99.90;;;;;;5011281;28;20045;-90
2021/12/08 06:35:17;;;;;;;16.27;8.50;;;4.60;99.90;;;;;;4994168;28;20049;-89
2021/12/08 06:37:44;;;;;;;18.98;9.20;;;4.90;99.90;;;;;;4995398;28;20042;-89
2021/12/08 06:40:11;;;;;;;19.77;8.48;;;4.70;99.90;;;;;;4994895;28;20049;-90
2021/12/08 06:42:39;;;;;;;14.48;8.82;;;4.70;99.90;;;;;;5011803;28;20144;-90
2021/12/08 06:45:09;;;;;;;18.25;9.13;;;5.40;99.90;;;;;;4994829;28;20053;-90
2021/12/08 06:47:35;;;;;;;19.70;8.95;;;4.70;99.90;;;;;;5010524;28;20060;-91
2021/12/08 06:50:08;;;;;;;17.95;8.40;;;5.70;99.90;;;;;;4993829;28;20556;-89
2021/12/08 06:52:38;;;;;;;12.60;8.15;;;4.70;99.90;;;;;;5010812;28;20085;-90
2021/12/08 06:55:14;;;;;;;17.48;7.85;;;4.80;99.90;;;;;;4994723;28;20068;-89
2021/12/08 06:57:46;;;;;;;14.52;8.35;;;4.70;99.90;;;;;;4994335;28;20057;-89
2021/12/08 07:00:23;;;;;;;14.02;7.72;;;4.80;99.90;;;;;;5010243;28;20608;-89
2021/12/08 07:03:06;;;;;;;15.02;8.43;;;4.80;99.90;;;;;;4995059;28;20052;-89
2021/12/08 07:08:21;;;;;;;15.02;7.15;;;5.90;99.90;;;;;;5013990;28;20068;-90
2021/12/08 07:10:48;;;;;;;14.02;7.05;;;5.70;99.90;;;;;;4997083;28;20052;-89
2021/12/08 07:13:21;;;;;;;12.38;6.72;;;5.80;99.90;;;;;;4998106;28;20099;-90
2021/12/08 07:15:56;;;;;;;20.20;7.50;;;5.20;99.90;;;;;;4997811;28;20049;-90
2021/12/08 07:18:27;;;;;;;13.30;6.70;;;4.60;99.90;;;;;;4996514;28;20052;-90
2021/12/08 07:21:00;;;;;;;15.32;7.65;;;5.80;99.90;;;;;;4993273;28;20050;-90
2021/12/08 07:23:36;;;;;;;13.40;6.43;;;4.90;99.90;;;;;;4978758;28;20034;-90
2021/12/08 07:26:08;;;;;;;13.88;7.55;;;5.10;99.90;;;;;;4978604;28;20042;-90
2021/12/08 07:28:37;;;;;;;13.68;7.18;;;4.50;99.90;;;;;;4993826;28;20042;-89
2021/12/08 07:31:10;;;;;;;14.40;6.32;;;4.90;99.90;;;;;;4978447;28;20038;-88
2021/12/08 07:33:36;;;;;;;13.93;6.80;;;4.40;99.90;;;;;;4993804;28;20501;-89
2021/12/08 07:36:07;;;;;;;12.27;7.72;;;4.90;99.90;;;;;;5002228;28;20077;-91
2021/12/08 07:38:33;;;;;;;14.60;6.40;;;4.30;99.90;;;;;;4988067;28;20037;-89
2021/12/08 07:41:08;;;;;;;12.80;6.43;;;5.30;99.90;;;;;;5009633;28;20055;-88
2021/12/08 07:43:38;;;;;;;14.35;6.60;;;4.20;99.90;;;;;;4986701;28;20116;-88
2021/12/08 07:46:11;;;;;;;12.32;5.35;;;3.50;99.90;;;;;;5004070;28;20128;-89
2021/12/08 07:48:44;;;;;;;11.40;5.53;;;4.10;99.90;;;;;;4991219;28;20515;-89
2021/12/08 07:51:12;;;;;;;;;;;4.20;99.90;;;;;;5012302;28;20038;-89
2021/12/08 07:53:39;;;;;;;8.20;4.07;;;4.20;99.90;;;;;;4985967;28;19975;-88
2021/12/08 07:56:09;;;;;;;11.48;4.68;;;4.20;99.90;;;;;;4986515;28;20046;-89
2021/12/08 07:58:47;;;;;;;15.23;4.97;;;5.60;99.90;;;;;;5001337;28;20135;-87
2021/12/08 08:01:17;;;;;;;16.10;4.43;;;4.20;99.90;;;;;;5002336;28;20040;-88
2021/12/08 08:03:43;;;;;;;9.57;3.88;;;4.20;99.90;;;;;;4986294;28;20110;-89
2021/12/08 08:06:15;;;;;;;9.68;4.10;;;4.20;99.90;;;;;;5004283;28;20038;-89
2021/12/08 08:08:41;;;;;;;9.35;3.80;;;4.20;99.90;;;;;;5001789;28;20050;-87
2021/12/08 08:11:14;;;;;;;13.20;4.18;;;4.20;99.90;;;;;;4985952;28;20041;-87
2021/12/08 08:13:40;;;;;;;12.93;3.60;;;4.20;99.90;;;;;;5004708;28;20048;-88
2021/12/08 08:16:12;;;;;;;9.35;3.55;;;5.00;99.90;;;;;;4985378;28;20091;-87
2021/12/08 08:18:52;;;;;;;9.80;3.80;;;4.20;99.90;;;;;;5000450;28;20049;-88
2021/12/08 08:21:21;;;;;;;9.70;3.88;;;5.10;99.90;;;;;;4985440;28;20068;-88
2021/12/08 08:23:47;;;;;;;14.98;4.25;;;5.00;99.90;;;;;;5001893;28;20099;-88
2021/12/08 08:26:15;;;;;;;10.40;4.15;;;4.20;99.90;;;;;;5002959;28;20120;-88
2021/12/08 08:28:44;;;;;;;10.13;3.92;;;4.20;99.90;;;;;;4986095;28;20038;-88
2021/12/08 08:31:17;;;;;;;10.18;3.47;;;4.20;99.90;;;;;;4985303;28;20080;-88
2021/12/08 08:33:43;;;;;;;;;;;4.30;99.90;;;;;;4977454;28;20052;-86
2021/12/08 08:36:13;;;;;;;14.35;4.40;;;5.40;99.90;;;;;;4984836;28;19921;-86
2021/12/08 08:38:45;;;;;;;16.65;4.10;;;4.40;99.90;;;;;;4992155;28;20504;-87
2021/12/08 08:41:17;;;;;;;11.00;3.72;;;5.10;99.90;;;;;;4976174;28;20156;-86
2021/12/08 08:43:45;;;;;;;11.65;3.75;;;4.40;99.90;;;;;;4975972;28;20053;-86
2021/12/08 08:46:16;;;;;;;11.70;3.50;;;5.30;99.90;;;;;;4989392;28;20073;-86
2021/12/08 08:48:48;;;;;;;16.88;3.60;;;5.60;99.90;;;;;;4990798;28;20095;-87
2021/12/08 08:51:20;;;;;;;10.68;3.35;;;4.80;99.90;;;;;;4975955;28;20064;-87
2021/12/08 08:53:50;;;;;;;13.53;3.27;;;4.50;99.90;;;;;;4975464;28;20050;-87
2021/12/08 08:56:21;;;;;;;8.68;3.00;;;4.50;99.90;;;;;;4992145;28;20296;-87
2021/12/08 08:58:50;;;;;;;11.05;2.55;;;5.00;99.90;;;;;;4984602;28;20045;-87
2021/12/08 09:01:22;;;;;;;10.00;2.80;;;5.40;99.90;;;;;;4995066;28;20106;-87
2021/12/08 09:03:53;;;;;;;10.45;3.17;;;5.70;99.90;;;;;;4994779;28;20489;-88
2021/12/08 09:06:28;;;;;;;15.68;3.33;;;4.60;99.90;;;;;;4995586;28;20528;-88
2021/12/08 09:08:54;;;;;;;6.97;2.65;;;4.70;99.90;;;;;;5013633;28;20132;-90
2021/12/08 09:11:25;;;;;;;16.05;2.92;;;4.80;99.90;;;;;;4995939;28;20187;-88
2021/12/08 09:14:00;;;;;;;15.32;3.75;;;4.80;99.90;;;;;;4995942;28;20052;-90
2021/12/08 09:16:32;;;;;;;13.27;2.38;;;4.90;99.90;;;;;;4996594;28;20045;-89
2021/12/08 09:19:06;;;;;;;8.68;2.15;;;5.40;99.90;;;;;;4995864;28;20046;-90
2021/12/08 09:21:37;;;;;;;12.48;2.65;;;5.40;99.90;;;;;;4995863;28;20045;-90
2021/12/08 09:24:22;;;;;;;12.85;2.97;;;4.90;99.90;;;;;;4985125;28;20046;-89
2021/12/08 09:26:54;;;;;;;10.25;3.00;;;4.90;99.90;;;;;;4976771;28;20046;-90
2021/12/08 09:29:25;;;;;;;15.95;1.95;;;5.80;99.90;;;;;;4976006;28;20413;-89
2021/12/08 09:32:04;;;;;;;12.05;2.50;;;5.00;99.90;;;;;;4996069;28;20038;-90
2021/12/08 09:34:38;;;;;;;10.05;2.22;;;4.90;99.90;;;;;;4975964;28;20042;-90
2021/12/08 09:37:09;;;;;;;13.63;2.55;;;4.90;99.90;;;;;;4976285;28;20060;-90
2021/12/08 09:39:43;;;;;;;11.82;2.88;;;5.90;99.90;;;;;;4974813;28;20139;-88
2021/12/08 09:42:29;;;;;;;7.78;2.10;;;6.10;99.90;;;;;;4992399;28;20505;-89
2021/12/08 09:45:03;;;;;;;10.18;2.22;;;5.00;99.90;;;;;;4976106;28;20151;-89
2021/12/08 09:47:29;;;;;;;10.23;2.10;;;5.00;99.90;;;;;;4975791;28;20096;-89
2021/12/08 09:49:58;;;;;;;12.90;2.35;;;5.10;99.90;;;;;;4991271;28;20045;-89
2021/12/08 09:52:27;;;;;;;14.90;2.30;;;5.00;99.90;;;;;;4991856;28;20046;-88
2021/12/08 09:54:56;;;;;;;14.35;2.35;;;6.20;99.90;;;;;;4975703;28;20038;-88
2021/12/08 09:57:22;;;;;;;18.10;2.55;;;5.50;99.90;;;;;;4991219;28;20050;-88
2021/12/08 09:59:48;;;;;;;12.10;2.40;;;5.00;99.90;;;;;;4991765;28;20042;-88
2021/12/08 10:02:25;;;;;;;12.63;2.63;;;5.00;99.90;;;;;;4992085;28;20052;-88
2021/12/08 10:04:51;;;;;;;13.80;2.70;;;5.00;99.90;;;;;;4991014;28;20050;-88
2021/12/08 10:07:19;;;;;;;12.25;2.70;;;6.20;99.90;;;;;;4991584;28;20099;-89
2021/12/08 10:09:45;;;;;;;13.20;2.60;;;5.80;99.90;;;;;;4991841;28;20053;-89
2021/12/08 10:12:12;;;;;;;9.32;2.25;;;6.20;99.90;;;;;;4991397;28;20054;-88
2021/12/08 10:14:38;;;;;;;13.85;2.42;;;5.80;99.90;;;;;;4991788;28;20141;-89
2021/12/08 10:17:04;;;;;;;11.40;2.15;;;5.70;99.90;;;;;;4993924;28;20050;-89
2021/12/08 10:19:30;;;;;;;11.85;2.80;;;6.30;99.90;;;;;;4990919;28;20388;-87
2021/12/08 10:21:56;;;;;;;12.07;2.72;;;5.80;99.90;;;;;;4992093;28;20046;-89
2021/12/08 10:24:25;;;;;;;14.95;3.33;;;6.60;99.90;;;;;;4991610;28;20736;-89
2021/12/08 10:26:54;;;;;;;15.07;2.55;;;5.30;99.90;;;;;;4992053;28;20084;-88
2021/12/08 10:29:26;;;;;;;9.05;2.30;;;6.20;99.90;;;;;;4991617;28;20046;-88
2021/12/08 10:31:53;;;;;;;10.23;2.35;;;6.10;99.90;;;;;;4975315;28;20097;-92
2021/12/08 10:34:24;;;;;;;10.30;2.38;;;5.50;99.90;;;;;;4988360;28;20417;-90
2021/12/08 10:36:55;;;;;;;9.23;2.45;;;5.60;99.90;;;;;;5003243;28;20077;-90
2021/12/08 10:39:30;;;;;;;13.65;2.70;;;5.60;99.90;;;;;;5002359;28;20096;-90
2021/12/08 10:42:17;;;;;;;10.38;2.33;;;5.60;99.90;;;;;;5007050;28;20041;-89
2021/12/08 10:44:53;;;;;;;12.18;2.50;;;5.60;99.90;;;;;;4988651;28;20461;-88
2021/12/08 10:47:22;;;;;;;10.45;2.55;;;6.70;99.90;;;;;;4987381;28;20126;-91
2021/12/08 10:55:14;;;;;;;13.15;2.80;;;5.60;99.90;;;;;;4995801;28;20118;-89
2021/12/08 10:57:41;;;;;;;11.60;1.88;;;5.60;99.90;;;;;;4995349;28;20057;-90
2021/12/08 11:00:10;;;;;;;15.82;2.70;;;5.60;99.90;;;;;;4979039;28;20758;-90
2021/12/08 11:02:45;;;;;;;11.52;2.40;;;5.70;99.90;;;;;;4995186;28;20046;-90
2021/12/08 11:05:24;;;;;;;11.63;2.22;;;5.70;99.90;;;;;;4994517;28;20436;-89
2021/12/08 11:08:21;;;;;;;14.32;2.40;;;5.70;99.90;;;;;;4978796;28;20054;-91
2021/12/08 11:10:53;;;;;;;8.38;2.40;;;5.70;99.90;;;;;;4978785;28;20445;-89
2021/12/08 11:13:24;;;;;;;9.55;2.10;;;5.90;99.90;;;;;;4978310;28;20124;-92
2021/12/08 11:16:00;;;;;;;14.25;3.10;;;5.70;99.90;;;;;;4995297;28;20481;-89
2021/12/08 11:18:30;;;;;;;16.90;2.92;;;6.60;99.90;;;;;;4994205;28;20054;-89
2021/12/08 11:21:00;;;;;;;11.02;2.75;;;5.90;99.90;;;;;;4977697;28;20046;-90
2021/12/08 11:23:41;;;;;;;7.32;2.40;;;6.00;99.90;;;;;;4978064;28;20042;-88
2021/12/08 11:26:18;;;;;;;12.55;2.53;;;6.10;99.90;;;;;;4978115;28;20133;-88
2021/12/08 11:28:52;;;;;;;11.63;2.15;;;6.10;99.90;;;;;;4993473;28;20049;-88
2021/12/08 11:31:18;;;;;;;12.55;2.72;;;6.10;99.90;;;;;;4977672;28;20045;-88
2021/12/08 11:33:51;;;;;;;15.30;3.28;;;6.30;99.90;;;;;;4993779;28;20137;-90
2021/12/08 11:36:20;;;;;;;9.38;1.92;;;6.10;99.90;;;;;;4994033;28;20042;-89
2021/12/08 11:38:48;;;;;;;15.45;2.50;;;6.90;99.90;;;;;;4994210;28;20108;-89
2021/12/08 11:41:35;;;;;;;16.33;2.78;;;6.90;99.90;;;;;;4993833;28;20042;-88
2021/12/08 11:44:08;;;;;;;15.27;2.95;;;6.10;99.90;;;;;;5008699;28;20056;-87
2021/12/08 11:46:38;;;;;;;18.15;3.03;;;6.10;99.90;;;;;;5016111;28;20045;-91
2021/12/08 11:49:14;;;;;;;12.43;2.42;;;6.10;99.90;;;;;;5033771;28;20080;-88
2021/12/08 11:51:54;;;;;;;9.95;2.22;;;6.10;99.90;;;;;;5034099;28;20037;-86
2021/12/08 11:54:26;;;;;;;9.50;2.13;;;6.80;99.90;;;;;;5015479;28;20091;-86
2021/12/08 11:56:56;;;;;;;9.83;2.33;;;6.20;99.90;;;;;;5007186;28;20097;-86
2021/12/08 11:59:22;;;;;;;15.18;3.30;;;6.40;99.90;;;;;;4991770;28;20295;-86
2021/12/08 12:01:49;;;;;;;10.73;2.65;;;6.80;99.90;;;;;;4993294;28;20050;-86
2021/12/08 12:04:14;;;;;;;13.23;2.63;;;6.20;99.90;;;;;;4975186;28;20084;-88
2021/12/08 12:06:40;;;;;;;11.75;3.72;;;6.30;99.90;;;;;;4976571;28;20050;-86
2021/12/08 12:09:08;;;;;;;7.22;2.47;;;6.10;99.90;;;;;;4981642;28;20080;-85
2021/12/08 12:11:35;;;;;;;15.43;3.05;;;6.10;99.90;;;;;;4981276;28;20042;-85
2021/12/08 12:14:01;;;;;;;9.68;2.33;;;6.60;99.90;;;;;;5003529;28;20048;-85
2021/12/08 12:16:28;;;;;;;13.52;2.45;;;6.70;99.90;;;;;;5004616;28;20134;-85
2021/12/08 12:18:56;;;;;;;16.05;2.60;;;6.00;99.90;;;;;;4980007;28;20042;-86
2021/12/08 12:21:35;;;;;;;12.30;2.38;;;5.90;99.90;;;;;;4993582;28;20100;-86
2021/12/08 12:24:10;;;;;;;8.82;2.17;;;5.90;99.90;;;;;;5009076;28;20037;-86
2021/12/08 12:26:46;;;;;;;9.60;2.55;;;5.90;99.90;;;;;;4984767;28;20041;-87
2021/12/08 12:29:36;;;;;;;10.88;2.55;;;5.90;99.90;;;;;;5001396;28;20471;-86
2021/12/08 12:32:08;;;;;;;13.95;2.47;;;5.90;99.90;;;;;;4985891;28;20033;-86
2021/12/08 12:34:36;;;;;;;11.93;2.20;;;5.80;99.90;;;;;;5001637;28;20129;-88
2021/12/08 12:37:29;;;;;;;7.97;2.08;;;6.00;99.90;;;;;;4997810;28;20464;-86
2021/12/08 12:39:57;;;;;;;10.73;3.05;;;5.80;99.90;;;;;;4976115;28;20053;-85
2021/12/08 12:42:25;;;;;;;12.32;2.58;;;5.80;99.90;;;;;;4985110;28;20404;-85
2021/12/08 12:44:57;;;;;;;13.63;2.60;;;5.90;99.90;;;;;;4982384;28;20054;-84
2021/12/08 12:47:26;;;;;;;10.23;2.38;;;5.90;99.90;;;;;;4996196;28;20458;-84
2021/12/08 12:50:15;;;;;;;10.35;2.53;;;6.80;99.90;;;;;;4971741;28;20046;-83
2021/12/08 12:52:49;;;;;;;9.77;2.53;;;5.80;99.90;;;;;;4988906;28;20117;-86
2021/12/08 12:55:24;;;;;;;12.10;2.60;;;6.60;99.90;;;;;;5018884;28;20049;-84
2021/12/08 12:57:59;;;;;;;11.13;2.88;;;5.70;99.90;;;;;;5027205;28;20045;-85
2021/12/08 13:00:28;;;;;;;10.90;2.65;;;5.70;99.90;;;;;;5024188;28;20049;-85
2021/12/08 13:02:54;;;;;;;10.82;2.65;;;5.70;99.90;;;;;;5010723;28;20198;-85
2021/12/08 13:05:20;;;;;;;10.75;2.47;;;5.70;99.90;;;;;;4997946;28;20124;-86
2021/12/08 13:07:59;;;;;;;12.50;2.42;;;6.00;99.90;;;;;;4989146;28;20050;-86
2021/12/08 13:10:34;;;;;;;8.43;2.30;;;6.30;99.90;;;;;;4971567;28;20046;-87
2021/12/08 13:13:11;;;;;;;9.63;2.67;;;6.10;99.90;;;;;;4984849;28;20048;-86
2021/12/08 13:15:40;;;;;;;9.27;2.40;;;5.70;99.90;;;;;;5007756;28;20053;-87
2021/12/08 13:18:12;;;;;;;7.13;2.72;;;6.00;99.90;;;;;;4990449;28;20045;-86
2021/12/08 13:20:59;;;;;;;13.63;2.45;;;5.70;99.90;;;;;;5007405;28;20493;-87
2021/12/08 13:23:29;;;;;;;10.77;2.92;;;5.70;99.90;;;;;;5004102;28;20046;-87
2021/12/08 13:26:08;;;;;;;8.65;2.00;;;5.70;99.90;;;;;;4988555;28;20057;-86
2021/12/08 13:28:36;;;;;;;11.02;2.80;;;5.70;99.90;;;;;;4987685;28;20057;-87
2021/12/08 13:31:08;;;;;;;8.45;2.40;;;6.30;99.90;;;;;;4988591;28;20129;-87
2021/12/08 13:33:39;;;;;;;17.45;2.70;;;5.60;99.90;;;;;;4987804;28;20102;-87
2021/12/08 13:36:20;;;;;;;13.10;2.40;;;5.60;99.90;;;;;;4987687;28;20137;-87
2021/12/08 13:39:08;;;;;;;8.80;2.35;;;5.60;99.90;;;;;;4987594;28;20051;-87
2021/12/08 13:41:37;;;;;;;12.02;2.83;;;5.60;99.90;;;;;;4986726;28;20053;-87
2021/12/08 13:44:24;;;;;;;11.73;2.65;;;5.60;99.90;;;;;;4971553;28;20121;-87
2021/12/08 13:46:55;;;;;;;12.80;2.40;;;5.60;99.90;;;;;;4971731;28;20086;-87
2021/12/08 13:49:31;;;;;;;10.45;2.50;;;5.60;99.90;;;;;;4985908;28;20069;-86